WEATHER DATA

TODAY
Time Temp. Dewp. Hum. Bar.
00:01 18.1 16.8 92 1012.9
00:10 18.1 16.8 92 1012.9
00:21 18 16.9 93 1012.9
00:31 18 16.9 93 1013
00:41 17.9 16.8 93 1013
00:56 17.7 16.6 93 1013.1
01:06 17.7 16.6 93 1013.1
01:15 17.6 16.5 93 1013
01:23 17.6 16.5 93 1013
01:37 17.4 16.4 94 1012.8
01:47 17.4 16.3 93 1012.7
01:57 17.2 16.1 93 1012.7
02:06 17.1 16 93 1012.6
02:17 17.1 16 93 1012.5
02:27 17 15.9 93 1012.6
02:37 17 15.9 93 1012.7
02:47 17 15.9 93 1012.7
02:57 17 15.9 93 1012.8
03:07 17 15.7 92 1012.9
03:17 17 15.7 92 1012.9
03:27 16.9 15.6 92 1013.1
03:37 16.8 15.5 92 1013.2
03:47 16.6 15.5 93 1013.4
03:58 16.5 15.4 93 1013.5
04:07 16.4 15.4 94 1013.5
04:17 16 14.9 93 1013.5
04:27 15.9 14.9 94 1013.4
04:38 15.8 14.8 94 1013.5
04:47 15.7 14.7 94 1013.4
04:57 15.7 14.9 95 1013.4
05:08 15.6 14.8 95 1013.4
05:18 15.7 14.9 95 1013.3
05:27 15.6 14.8 95 1013.2
05:38 15.5 14.7 95 1013.3
05:48 15.4 14.6 95 1013.2
05:58 15.4 14.8 96 1013.2
06:07 15.5 14.9 96 1013.4
06:18 15.6 15 96 1013.5
06:28 15.8 15.2 96 1013.4
06:38 15.9 15.1 95 1013.4
06:58 16.1 15.1 94 1013.4
07:08 16.1 15 93 1013.5
07:18 16.3 15 92 1013.5
07:29 16.6 15.3 92 1013.6
07:38 16.8 15.3 91 1013.6
07:48 17.2 15.5 90 1013.6
07:59 17.6 15.8 89 1013.5
08:09 18 15.8 87 1013.4
08:18 18.4 16 86 1013.5
08:28 18.9 16.1 84 1013.5
08:39 19.4 16.4 83 1013.5
08:49 19.9 16.2 79 1013.4
08:58 20.4 16 76 1013.5
09:09 21.1 16.1 73 1013.5
09:19 21.7 16 70 1013.4
09:29 21.8 15.4 67 1013.4
09:38 21.9 15.7 68 1013.2
09:49 22.2 15.6 66 1013.3
09:59 22.6 15.2 63 1013.3
10:08 22.8 14.9 61 1013.3
10:19 23 15.1 61 1013.3
10:29 23.1 15.2 61 1013.3
10:39 23.5 15.6 61 1013.3
10:49 23.6 15.1 59 1013.4
10:59 23.6 15.1 59 1013.5
11:09 23.9 15.4 59 1013.4
11:19 24.1 15.3 58 1013.4
11:30 24.2 15.4 58 1013.4
11:39 24.4 15.6 58 1013.3
11:59 24.7 15.6 57 1013.3
12:10 24.8 15.4 56 1013.4
12:19 24.8 15.7 57 1013.4
12:29 24.6 15.5 57 1013.4
12:40 24.8 15.4 56 1013.3
12:50 24.9 15.5 56 1013.3
12:59 24.9 15.5 56 1013.2
13:10 25 15.9 57 1013.2
13:20 24.8 15.7 57 1013.2
13:30 24.7 15.3 56 1013.1
13:39 25.1 15.4 55 1013
13:50 25 15.3 55 1012.9
14:00 25.2 15.5 55 1012.9
14:10 25.2 14.9 53 1012.8
14:20 25.2 15.5 55 1012.7
14:30 25.2 15.5 55 1012.6
14:40 25.3 15.3 54 1012.6
14:50 25.4 15.4 54 1012.5
15:00 25.5 15.5 54 1012.4
15:10 25.7 15.4 53 1012.4
15:20 25.8 15.8 54 1012.3
15:31 26 15.4 52 1012.2
15:40 25.9 15.3 52 1012.1
15:50 25.9 15.9 54 1012.1

DAY STATISTIC

2018-05-24
TEMPERATURE
AVERAGE
20.1
HIGH
26.0
15:31
LOW
15.4
05:48
PRESSURE
AVERAGE
1013.1
HIGH
1013.6
07:29
LOW
1012.1
15:40
DEWPOINT
AVERAGE
15.6
HIGH
16.9
00:21
LOW
14.6
05:48
HUMIDITY
AVERAGE
78
HIGH
96
05:58
LOW
52
15:31
TEMPERATURE (°C)
LOW
15.4
HIGH
26.0
AVERAGE
20.1
PRESSURE (hpa)
LOW
1012.1
HIGH
1013.6
AVERAGE
1013.1
DEVICE